Terminal Aerodrome Forecast
Issued by NWS Melbourne, FL

Home | Current Version | Previous Version | Text Only | Print | Product List | Glossary On
Versions: 1 2 3 4 5 6 7 8 9 10 11 12 13 14 15 16 17 18
000
FTUS42 KMLB 070618 AAA
TAFMLB
TAF AMD
KMLB 070618Z 0706/0806 29006KT P6SM SCT012 SCT070
     FM071400 31010KT P6SM FEW030
     FM071800 34010KT P6SM FEW040
     FM072100 05010KT P6SM FEW045
     FM080300 27006KT P6SM SKC=

USA.gov is the U.S. government's official web portal to all federal, state and local government web resources and services.